sensor_id;sensor_type;location;lat;lon;timestamp;P1;durP1;ratioP1;P2;durP2;ratioP2
67665;SDS011;54448;51.472;-2.574;2022-07-23T00:00:11;20.27;;;6.10;;
67665;SDS011;54448;51.472;-2.574;2022-07-23T00:02:36;15.25;;;5.25;;
67665;SDS011;54448;51.472;-2.574;2022-07-23T00:05:02;15.23;;;5.60;;
67665;SDS011;54448;51.472;-2.574;2022-07-23T00:07:28;18.25;;;5.32;;
67665;SDS011;54448;51.472;-2.574;2022-07-23T00:09:54;13.38;;;5.70;;
67665;SDS011;54448;51.472;-2.574;2022-07-23T00:12:20;20.35;;;5.65;;
67665;SDS011;54448;51.472;-2.574;2022-07-23T00:14:46;16.83;;;6.45;;
67665;SDS011;54448;51.472;-2.574;2022-07-23T00:17:11;23.73;;;6.90;;
67665;SDS011;54448;51.472;-2.574;2022-07-23T00:19:37;14.35;;;6.25;;
67665;SDS011;54448;51.472;-2.574;2022-07-23T00:22:02;12.18;;;6.20;;
67665;SDS011;54448;51.472;-2.574;2022-07-23T00:24:27;15.98;;;6.15;;
67665;SDS011;54448;51.472;-2.574;2022-07-23T00:26:53;15.65;;;6.78;;
67665;SDS011;54448;51.472;-2.574;2022-07-23T00:29:19;14.88;;;6.38;;
67665;SDS011;54448;51.472;-2.574;2022-07-23T00:31:44;17.42;;;7.15;;
67665;SDS011;54448;51.472;-2.574;2022-07-23T00:34:10;14.57;;;6.68;;
67665;SDS011;54448;51.472;-2.574;2022-07-23T00:36:35;16.60;;;6.90;;
67665;SDS011;54448;51.472;-2.574;2022-07-23T00:39:01;19.13;;;6.88;;
67665;SDS011;54448;51.472;-2.574;2022-07-23T00:41:26;15.48;;;6.85;;
67665;SDS011;54448;51.472;-2.574;2022-07-23T00:43:52;19.15;;;7.25;;
67665;SDS011;54448;51.472;-2.574;2022-07-23T00:46:21;15.52;;;7.38;;
67665;SDS011;54448;51.472;-2.574;2022-07-23T00:48:48;19.30;;;7.80;;
67665;SDS011;54448;51.472;-2.574;2022-07-23T00:51:17;18.95;;;7.05;;
67665;SDS011;54448;51.472;-2.574;2022-07-23T00:53:45;19.75;;;6.70;;
67665;SDS011;54448;51.472;-2.574;2022-07-23T00:56:11;19.10;;;7.32;;
67665;SDS011;54448;51.472;-2.574;2022-07-23T00:58:37;20.15;;;7.07;;
67665;SDS011;54448;51.472;-2.574;2022-07-23T01:01:03;23.73;;;7.28;;
67665;SDS011;54448;51.472;-2.574;2022-07-23T01:03:29;16.00;;;7.45;;
67665;SDS011;54448;51.472;-2.574;2022-07-23T01:05:55;19.33;;;7.00;;
67665;SDS011;54448;51.472;-2.574;2022-07-23T01:08:21;15.45;;;6.60;;
67665;SDS011;54448;51.472;-2.574;2022-07-23T01:10:46;21.05;;;7.30;;
67665;SDS011;54448;51.472;-2.574;2022-07-23T01:13:13;14.82;;;6.63;;
67665;SDS011;54448;51.472;-2.574;2022-07-23T01:15:41;27.08;;;8.25;;
67665;SDS011;54448;51.472;-2.574;2022-07-23T01:18:07;16.58;;;7.05;;
67665;SDS011;54448;51.472;-2.574;2022-07-23T01:20:33;12.88;;;6.75;;
67665;SDS011;54448;51.472;-2.574;2022-07-23T01:22:59;19.23;;;7.30;;
67665;SDS011;54448;51.472;-2.574;2022-07-23T01:25:27;14.38;;;6.80;;
67665;SDS011;54448;51.472;-2.574;2022-07-23T01:27:53;17.75;;;7.05;;
67665;SDS011;54448;51.472;-2.574;2022-07-23T01:30:18;19.60;;;6.93;;
67665;SDS011;54448;51.472;-2.574;2022-07-23T01:32:44;13.45;;;5.90;;
67665;SDS011;54448;51.472;-2.574;2022-07-23T01:35:10;23.00;;;6.35;;
67665;SDS011;54448;51.472;-2.574;2022-07-23T01:37:35;18.80;;;7.15;;
67665;SDS011;54448;51.472;-2.574;2022-07-23T01:40:02;16.85;;;6.78;;
67665;SDS011;54448;51.472;-2.574;2022-07-23T01:42:27;15.95;;;5.82;;
67665;SDS011;54448;51.472;-2.574;2022-07-23T01:44:53;16.95;;;7.18;;
67665;SDS011;54448;51.472;-2.574;2022-07-23T01:47:18;17.75;;;7.00;;
67665;SDS011;54448;51.472;-2.574;2022-07-23T01:49:44;16.08;;;6.32;;
67665;SDS011;54448;51.472;-2.574;2022-07-23T01:52:09;18.58;;;6.60;;
67665;SDS011;54448;51.472;-2.574;2022-07-23T01:54:36;20.35;;;7.20;;
67665;SDS011;54448;51.472;-2.574;2022-07-23T01:57:05;17.00;;;7.03;;
67665;SDS011;54448;51.472;-2.574;2022-07-23T01:59:31;15.05;;;7.40;;
67665;SDS011;54448;51.472;-2.574;2022-07-23T02:01:57;15.27;;;7.05;;
67665;SDS011;54448;51.472;-2.574;2022-07-23T02:04:23;15.80;;;7.60;;
67665;SDS011;54448;51.472;-2.574;2022-07-23T02:06:49;11.68;;;6.43;;
67665;SDS011;54448;51.472;-2.574;2022-07-23T02:09:15;14.27;;;6.85;;
67665;SDS011;54448;51.472;-2.574;2022-07-23T02:11:40;16.80;;;7.35;;
67665;SDS011;54448;51.472;-2.574;2022-07-23T02:14:06;15.05;;;6.95;;
67665;SDS011;54448;51.472;-2.574;2022-07-23T02:16:32;15.02;;;7.13;;
67665;SDS011;54448;51.472;-2.574;2022-07-23T02:18:57;14.90;;;7.03;;
67665;SDS011;54448;51.472;-2.574;2022-07-23T02:21:23;18.38;;;7.70;;
67665;SDS011;54448;51.472;-2.574;2022-07-23T02:23:48;22.77;;;7.75;;
67665;SDS011;54448;51.472;-2.574;2022-07-23T02:26:14;19.58;;;7.47;;
67665;SDS011;54448;51.472;-2.574;2022-07-23T02:28:39;16.40;;;7.13;;
67665;SDS011;54448;51.472;-2.574;2022-07-23T02:31:04;23.25;;;7.80;;
67665;SDS011;54448;51.472;-2.574;2022-07-23T02:33:31;16.02;;;7.70;;
67665;SDS011;54448;51.472;-2.574;2022-07-23T02:35:57;14.82;;;6.45;;
67665;SDS011;54448;51.472;-2.574;2022-07-23T02:38:22;19.75;;;8.25;;
67665;SDS011;54448;51.472;-2.574;2022-07-23T02:40:50;21.92;;;6.95;;
67665;SDS011;54448;51.472;-2.574;2022-07-23T02:43:16;18.83;;;7.00;;
67665;SDS011;54448;51.472;-2.574;2022-07-23T02:45:42;17.05;;;6.60;;
67665;SDS011;54448;51.472;-2.574;2022-07-23T02:48:07;10.63;;;6.38;;
67665;SDS011;54448;51.472;-2.574;2022-07-23T02:50:32;11.95;;;6.20;;
67665;SDS011;54448;51.472;-2.574;2022-07-23T02:52:58;17.27;;;6.68;;
67665;SDS011;54448;51.472;-2.574;2022-07-23T02:55:24;15.43;;;6.38;;
67665;SDS011;54448;51.472;-2.574;2022-07-23T02:57:49;14.43;;;6.50;;
67665;SDS011;54448;51.472;-2.574;2022-07-23T03:00:15;17.92;;;6.28;;
67665;SDS011;54448;51.472;-2.574;2022-07-23T03:02:40;17.75;;;6.30;;
67665;SDS011;54448;51.472;-2.574;2022-07-23T03:05:06;19.40;;;5.93;;
67665;SDS011;54448;51.472;-2.574;2022-07-23T03:07:32;12.60;;;6.18;;
67665;SDS011;54448;51.472;-2.574;2022-07-23T03:09:57;21.15;;;6.70;;
67665;SDS011;54448;51.472;-2.574;2022-07-23T03:12:23;11.43;;;6.60;;
67665;SDS011;54448;51.472;-2.574;2022-07-23T03:14:48;13.63;;;6.38;;
67665;SDS011;54448;51.472;-2.574;2022-07-23T03:17:14;17.23;;;6.65;;
67665;SDS011;54448;51.472;-2.574;2022-07-23T03:19:39;12.15;;;6.20;;
67665;SDS011;54448;51.472;-2.574;2022-07-23T03:22:05;13.60;;;6.65;;
67665;SDS011;54448;51.472;-2.574;2022-07-23T03:24:30;17.55;;;6.53;;
67665;SDS011;54448;51.472;-2.574;2022-07-23T03:27:14;15.85;;;6.57;;
67665;SDS011;54448;51.472;-2.574;2022-07-23T03:29:40;19.55;;;6.85;;
67665;SDS011;54448;51.472;-2.574;2022-07-23T03:32:05;13.20;;;6.45;;
67665;SDS011;54448;51.472;-2.574;2022-07-23T03:34:31;22.02;;;7.40;;
67665;SDS011;54448;51.472;-2.574;2022-07-23T03:36:56;14.60;;;6.57;;
67665;SDS011;54448;51.472;-2.574;2022-07-23T03:39:22;13.40;;;7.03;;
67665;SDS011;54448;51.472;-2.574;2022-07-23T03:41:47;20.85;;;6.90;;
67665;SDS011;54448;51.472;-2.574;2022-07-23T03:44:12;17.23;;;7.28;;
67665;SDS011;54448;51.472;-2.574;2022-07-23T03:46:38;20.50;;;6.85;;
67665;SDS011;54448;51.472;-2.574;2022-07-23T03:49:03;16.60;;;6.78;;
67665;SDS011;54448;51.472;-2.574;2022-07-23T03:51:29;17.65;;;6.63;;
67665;SDS011;54448;51.472;-2.574;2022-07-23T03:53:57;13.88;;;6.68;;
67665;SDS011;54448;51.472;-2.574;2022-07-23T03:56:23;18.90;;;6.95;;
67665;SDS011;54448;51.472;-2.574;2022-07-23T03:58:48;14.88;;;6.32;;
67665;SDS011;54448;51.472;-2.574;2022-07-23T04:01:14;19.17;;;7.30;;
67665;SDS011;54448;51.472;-2.574;2022-07-23T04:03:39;10.57;;;6.22;;
67665;SDS011;54448;51.472;-2.574;2022-07-23T04:06:05;17.30;;;7.65;;
67665;SDS011;54448;51.472;-2.574;2022-07-23T04:08:31;13.93;;;7.05;;
67665;SDS011;54448;51.472;-2.574;2022-07-23T04:10:57;13.77;;;6.90;;
67665;SDS011;54448;51.472;-2.574;2022-07-23T04:13:22;17.00;;;7.40;;
67665;SDS011;54448;51.472;-2.574;2022-07-23T04:15:48;18.20;;;8.52;;
67665;SDS011;54448;51.472;-2.574;2022-07-23T04:18:13;14.00;;;6.75;;
67665;SDS011;54448;51.472;-2.574;2022-07-23T04:20:42;15.73;;;7.45;;
67665;SDS011;54448;51.472;-2.574;2022-07-23T04:23:07;13.70;;;7.10;;
67665;SDS011;54448;51.472;-2.574;2022-07-23T04:25:34;14.82;;;7.38;;
67665;SDS011;54448;51.472;-2.574;2022-07-23T04:28:00;15.98;;;7.35;;
67665;SDS011;54448;51.472;-2.574;2022-07-23T04:30:25;12.30;;;6.38;;
67665;SDS011;54448;51.472;-2.574;2022-07-23T04:32:52;16.02;;;7.32;;
67665;SDS011;54448;51.472;-2.574;2022-07-23T04:35:17;15.30;;;6.80;;
67665;SDS011;54448;51.472;-2.574;2022-07-23T04:37:43;16.30;;;7.10;;
67665;SDS011;54448;51.472;-2.574;2022-07-23T04:40:08;11.48;;;6.47;;
67665;SDS011;54448;51.472;-2.574;2022-07-23T04:42:34;15.82;;;7.00;;
67665;SDS011;54448;51.472;-2.574;2022-07-23T04:45:00;10.52;;;6.03;;
67665;SDS011;54448;51.472;-2.574;2022-07-23T04:47:25;14.70;;;6.47;;
67665;SDS011;54448;51.472;-2.574;2022-07-23T04:49:51;18.63;;;7.07;;
67665;SDS011;54448;51.472;-2.574;2022-07-23T04:52:16;12.93;;;7.05;;
67665;SDS011;54448;51.472;-2.574;2022-07-23T04:54:41;17.33;;;7.30;;
67665;SDS011;54448;51.472;-2.574;2022-07-23T04:57:07;17.58;;;8.00;;
67665;SDS011;54448;51.472;-2.574;2022-07-23T04:59:32;15.57;;;6.65;;
67665;SDS011;54448;51.472;-2.574;2022-07-23T05:01:58;17.40;;;7.07;;
67665;SDS011;54448;51.472;-2.574;2022-07-23T05:04:23;14.20;;;6.55;;
67665;SDS011;54448;51.472;-2.574;2022-07-23T05:06:48;15.55;;;6.47;;
67665;SDS011;54448;51.472;-2.574;2022-07-23T05:09:14;17.63;;;6.47;;
67665;SDS011;54448;51.472;-2.574;2022-07-23T05:11:39;17.10;;;6.80;;
67665;SDS011;54448;51.472;-2.574;2022-07-23T05:14:05;13.52;;;5.88;;
67665;SDS011;54448;51.472;-2.574;2022-07-23T05:16:31;15.50;;;6.15;;
67665;SDS011;54448;51.472;-2.574;2022-07-23T05:18:57;13.10;;;6.28;;
67665;SDS011;54448;51.472;-2.574;2022-07-23T05:21:22;13.40;;;6.45;;
67665;SDS011;54448;51.472;-2.574;2022-07-23T05:23:47;13.25;;;6.55;;
67665;SDS011;54448;51.472;-2.574;2022-07-23T05:26:13;19.23;;;6.50;;
67665;SDS011;54448;51.472;-2.574;2022-07-23T05:28:38;13.65;;;6.40;;
67665;SDS011;54448;51.472;-2.574;2022-07-23T05:31:04;16.73;;;6.90;;
67665;SDS011;54448;51.472;-2.574;2022-07-23T05:33:29;16.80;;;6.82;;
67665;SDS011;54448;51.472;-2.574;2022-07-23T05:36:02;17.58;;;6.68;;
67665;SDS011;54448;51.472;-2.574;2022-07-23T05:38:28;14.85;;;6.43;;
67665;SDS011;54448;51.472;-2.574;2022-07-23T05:40:56;13.82;;;6.55;;
67665;SDS011;54448;51.472;-2.574;2022-07-23T05:43:22;17.38;;;6.97;;
67665;SDS011;54448;51.472;-2.574;2022-07-23T05:45:47;14.52;;;6.50;;
67665;SDS011;54448;51.472;-2.574;2022-07-23T05:48:12;16.42;;;5.93;;
67665;SDS011;54448;51.472;-2.574;2022-07-23T05:50:38;18.60;;;5.88;;
67665;SDS011;54448;51.472;-2.574;2022-07-23T05:53:03;17.10;;;5.80;;
67665;SDS011;54448;51.472;-2.574;2022-07-23T05:55:29;13.63;;;5.43;;
67665;SDS011;54448;51.472;-2.574;2022-07-23T05:57:56;14.88;;;5.75;;
67665;SDS011;54448;51.472;-2.574;2022-07-23T06:00:22;10.45;;;4.82;;
67665;SDS011;54448;51.472;-2.574;2022-07-23T06:02:48;16.95;;;5.40;;
67665;SDS011;54448;51.472;-2.574;2022-07-23T06:05:14;10.65;;;5.20;;
67665;SDS011;54448;51.472;-2.574;2022-07-23T06:07:39;12.68;;;5.15;;
67665;SDS011;54448;51.472;-2.574;2022-07-23T06:10:05;13.15;;;5.10;;
67665;SDS011;54448;51.472;-2.574;2022-07-23T06:12:31;13.07;;;5.60;;
67665;SDS011;54448;51.472;-2.574;2022-07-23T06:14:57;14.88;;;5.57;;
67665;SDS011;54448;51.472;-2.574;2022-07-23T06:17:22;12.95;;;5.70;;
67665;SDS011;54448;51.472;-2.574;2022-07-23T06:19:47;19.75;;;5.50;;
67665;SDS011;54448;51.472;-2.574;2022-07-23T06:22:13;13.95;;;5.65;;
67665;SDS011;54448;51.472;-2.574;2022-07-23T06:24:39;13.38;;;5.35;;
67665;SDS011;54448;51.472;-2.574;2022-07-23T06:27:04;11.93;;;5.00;;
67665;SDS011;54448;51.472;-2.574;2022-07-23T06:29:30;14.48;;;5.18;;
67665;SDS011;54448;51.472;-2.574;2022-07-23T06:31:55;10.55;;;5.07;;
67665;SDS011;54448;51.472;-2.574;2022-07-23T06:34:20;15.80;;;5.05;;
67665;SDS011;54448;51.472;-2.574;2022-07-23T06:36:46;13.80;;;5.32;;
67665;SDS011;54448;51.472;-2.574;2022-07-23T06:39:11;11.43;;;4.40;;
67665;SDS011;54448;51.472;-2.574;2022-07-23T06:41:37;14.65;;;4.75;;
67665;SDS011;54448;51.472;-2.574;2022-07-23T06:44:02;9.90;;;4.40;;
67665;SDS011;54448;51.472;-2.574;2022-07-23T06:46:28;10.13;;;3.88;;
67665;SDS011;54448;51.472;-2.574;2022-07-23T06:48:53;10.43;;;3.60;;
67665;SDS011;54448;51.472;-2.574;2022-07-23T06:51:22;6.55;;;3.45;;
67665;SDS011;54448;51.472;-2.574;2022-07-23T06:53:47;8.35;;;3.22;;
67665;SDS011;54448;51.472;-2.574;2022-07-23T06:56:13;5.15;;;2.97;;
67665;SDS011;54448;51.472;-2.574;2022-07-23T06:58:38;6.03;;;2.92;;
67665;SDS011;54448;51.472;-2.574;2022-07-23T07:01:03;7.85;;;3.00;;
67665;SDS011;54448;51.472;-2.574;2022-07-23T07:03:29;8.05;;;3.17;;
67665;SDS011;54448;51.472;-2.574;2022-07-23T07:05:54;8.98;;;2.97;;
67665;SDS011;54448;51.472;-2.574;2022-07-23T07:08:22;7.65;;;2.90;;
67665;SDS011;54448;51.472;-2.574;2022-07-23T07:10:48;11.57;;;3.15;;
67665;SDS011;54448;51.472;-2.574;2022-07-23T07:13:13;7.75;;;2.92;;
67665;SDS011;54448;51.472;-2.574;2022-07-23T07:15:39;13.27;;;3.47;;
67665;SDS011;54448;51.472;-2.574;2022-07-23T07:18:04;5.57;;;2.75;;
67665;SDS011;54448;51.472;-2.574;2022-07-23T07:20:30;7.68;;;2.90;;
67665;SDS011;54448;51.472;-2.574;2022-07-23T07:22:55;8.68;;;2.75;;
67665;SDS011;54448;51.472;-2.574;2022-07-23T07:25:21;8.10;;;2.97;;
67665;SDS011;54448;51.472;-2.574;2022-07-23T07:27:46;8.32;;;3.08;;
67665;SDS011;54448;51.472;-2.574;2022-07-23T07:30:12;7.30;;;2.72;;
67665;SDS011;54448;51.472;-2.574;2022-07-23T07:32:38;7.13;;;2.70;;
67665;SDS011;54448;51.472;-2.574;2022-07-23T07:35:04;9.05;;;2.80;;
67665;SDS011;54448;51.472;-2.574;2022-07-23T07:37:30;9.38;;;2.78;;
67665;SDS011;54448;51.472;-2.574;2022-07-23T07:39:55;6.35;;;2.72;;
67665;SDS011;54448;51.472;-2.574;2022-07-23T07:42:20;6.15;;;2.30;;
67665;SDS011;54448;51.472;-2.574;2022-07-23T07:44:49;6.68;;;2.65;;
67665;SDS011;54448;51.472;-2.574;2022-07-23T07:47:14;8.65;;;2.72;;
67665;SDS011;54448;51.472;-2.574;2022-07-23T07:49:41;8.45;;;2.55;;
67665;SDS011;54448;51.472;-2.574;2022-07-23T07:52:09;5.53;;;2.35;;
67665;SDS011;54448;51.472;-2.574;2022-07-23T07:54:35;6.53;;;2.95;;
67665;SDS011;54448;51.472;-2.574;2022-07-23T07:57:01;6.13;;;2.00;;
67665;SDS011;54448;51.472;-2.574;2022-07-23T07:59:26;9.05;;;2.83;;
67665;SDS011;54448;51.472;-2.574;2022-07-23T08:01:52;5.32;;;1.92;;
67665;SDS011;54448;51.472;-2.574;2022-07-23T08:04:17;5.95;;;2.03;;
67665;SDS011;54448;51.472;-2.574;2022-07-23T08:06:43;8.23;;;1.90;;
67665;SDS011;54448;51.472;-2.574;2022-07-23T08:09:09;3.78;;;1.98;;
67665;SDS011;54448;51.472;-2.574;2022-07-23T08:11:34;3.60;;;2.05;;
67665;SDS011;54448;51.472;-2.574;2022-07-23T08:14:00;4.25;;;2.40;;
67665;SDS011;54448;51.472;-2.574;2022-07-23T08:16:25;6.97;;;2.00;;
67665;SDS011;54448;51.472;-2.574;2022-07-23T08:18:51;7.32;;;1.92;;
67665;SDS011;54448;51.472;-2.574;2022-07-23T08:21:16;6.22;;;2.15;;
67665;SDS011;54448;51.472;-2.574;2022-07-23T08:23:45;3.83;;;1.70;;
67665;SDS011;54448;51.472;-2.574;2022-07-23T08:26:10;4.93;;;1.83;;
67665;SDS011;54448;51.472;-2.574;2022-07-23T08:28:36;5.90;;;1.67;;
67665;SDS011;54448;51.472;-2.574;2022-07-23T08:31:04;7.28;;;2.00;;
67665;SDS011;54448;51.472;-2.574;2022-07-23T08:33:32;2.80;;;1.60;;
67665;SDS011;54448;51.472;-2.574;2022-07-23T08:35:58;3.83;;;1.80;;
67665;SDS011;54448;51.472;-2.574;2022-07-23T08:38:24;4.90;;;1.88;;
67665;SDS011;54448;51.472;-2.574;2022-07-23T08:40:53;2.92;;;1.50;;
67665;SDS011;54448;51.472;-2.574;2022-07-23T08:43:21;3.45;;;1.52;;
67665;SDS011;54448;51.472;-2.574;2022-07-23T08:45:50;3.70;;;1.30;;
67665;SDS011;54448;51.472;-2.574;2022-07-23T08:48:18;3.22;;;1.40;;
67665;SDS011;54448;51.472;-2.574;2022-07-23T08:50:48;3.42;;;1.50;;
67665;SDS011;54448;51.472;-2.574;2022-07-23T08:53:14;2.83;;;1.67;;
67665;SDS011;54448;51.472;-2.574;2022-07-23T08:55:43;3.33;;;1.48;;
67665;SDS011;54448;51.472;-2.574;2022-07-23T08:58:09;3.17;;;1.92;;
67665;SDS011;54448;51.472;-2.574;2022-07-23T09:00:35;3.20;;;1.90;;
67665;SDS011;54448;51.472;-2.574;2022-07-23T09:03:00;3.03;;;1.35;;
67665;SDS011;54448;51.472;-2.574;2022-07-23T09:05:25;2.95;;;1.80;;
67665;SDS011;54448;51.472;-2.574;2022-07-23T09:10:44;4.93;;;1.90;;
67665;SDS011;54448;51.472;-2.574;2022-07-23T09:15:54;5.65;;;1.95;;
67665;SDS011;54448;51.472;-2.574;2022-07-23T09:18:28;4.38;;;1.98;;
67665;SDS011;54448;51.472;-2.574;2022-07-23T09:26:16;4.88;;;2.08;;
67665;SDS011;54448;51.472;-2.574;2022-07-23T09:28:50;3.45;;;1.88;;
67665;SDS011;54448;51.472;-2.574;2022-07-23T09:33:46;4.10;;;2.00;;
67665;SDS011;54448;51.472;-2.574;2022-07-23T09:36:11;3.83;;;1.80;;
67665;SDS011;54448;51.472;-2.574;2022-07-23T09:38:47;3.65;;;1.90;;
67665;SDS011;54448;51.472;-2.574;2022-07-23T09:41:16;3.78;;;1.80;;
67665;SDS011;54448;51.472;-2.574;2022-07-23T09:43:41;7.82;;;2.10;;
67665;SDS011;54448;51.472;-2.574;2022-07-23T09:46:26;4.38;;;2.22;;
67665;SDS011;54448;51.472;-2.574;2022-07-23T09:48:53;6.82;;;1.85;;
67665;SDS011;54448;51.472;-2.574;2022-07-23T09:51:19;4.18;;;2.05;;
67665;SDS011;54448;51.472;-2.574;2022-07-23T09:53:50;4.85;;;2.15;;
67665;SDS011;54448;51.472;-2.574;2022-07-23T09:56:16;3.60;;;2.28;;
67665;SDS011;54448;51.472;-2.574;2022-07-23T09:58:42;3.60;;;2.60;;
67665;SDS011;54448;51.472;-2.574;2022-07-23T10:01:15;5.07;;;2.10;;
67665;SDS011;54448;51.472;-2.574;2022-07-23T10:03:41;3.30;;;2.13;;
67665;SDS011;54448;51.472;-2.574;2022-07-23T10:06:08;6.22;;;2.22;;
67665;SDS011;54448;51.472;-2.574;2022-07-23T10:08:35;5.78;;;2.00;;
67665;SDS011;54448;51.472;-2.574;2022-07-23T10:11:00;4.70;;;1.95;;
67665;SDS011;54448;51.472;-2.574;2022-07-23T10:13:27;5.40;;;2.40;;
67665;SDS011;54448;51.472;-2.574;2022-07-23T10:16:11;6.57;;;2.40;;
67665;SDS011;54448;51.472;-2.574;2022-07-23T10:18:37;9.15;;;2.40;;
67665;SDS011;54448;51.472;-2.574;2022-07-23T10:21:07;3.65;;;2.33;;
67665;SDS011;54448;51.472;-2.574;2022-07-23T10:23:40;5.20;;;2.28;;
67665;SDS011;54448;51.472;-2.574;2022-07-23T10:26:17;3.85;;;2.33;;
67665;SDS011;54448;51.472;-2.574;2022-07-23T10:29:10;9.10;;;2.40;;
67665;SDS011;54448;51.472;-2.574;2022-07-23T10:37:38;5.82;;;2.20;;
67665;SDS011;54448;51.472;-2.574;2022-07-23T10:42:39;4.15;;;2.40;;
67665;SDS011;54448;51.472;-2.574;2022-07-23T10:47:52;5.00;;;2.40;;
67665;SDS011;54448;51.472;-2.574;2022-07-23T10:58:00;4.63;;;2.40;;
67665;SDS011;54448;51.472;-2.574;2022-07-23T11:00:27;4.45;;;2.10;;
67665;SDS011;54448;51.472;-2.574;2022-07-23T11:03:00;2.85;;;1.95;;
67665;SDS011;54448;51.472;-2.574;2022-07-23T11:05:41;2.97;;;1.88;;
67665;SDS011;54448;51.472;-2.574;2022-07-23T11:11:07;5.03;;;2.05;;
67665;SDS011;54448;51.472;-2.574;2022-07-23T11:13:39;4.38;;;2.35;;
67665;SDS011;54448;51.472;-2.574;2022-07-23T11:16:12;3.38;;;2.30;;
67665;SDS011;54448;51.472;-2.574;2022-07-23T11:24:05;12.60;;;2.80;;
67665;SDS011;54448;51.472;-2.574;2022-07-23T11:34:50;3.13;;;2.33;;
67665;SDS011;54448;51.472;-2.574;2022-07-23T11:37:28;4.10;;;2.17;;
67665;SDS011;54448;51.472;-2.574;2022-07-23T11:40:02;5.47;;;2.73;;
67665;SDS011;54448;51.472;-2.574;2022-07-23T11:42:30;3.92;;;2.50;;
67665;SDS011;54448;51.472;-2.574;2022-07-23T11:44:56;6.30;;;3.08;;
67665;SDS011;54448;51.472;-2.574;2022-07-23T11:47:22;5.25;;;2.25;;
67665;SDS011;54448;51.472;-2.574;2022-07-23T11:49:56;6.07;;;2.47;;
67665;SDS011;54448;51.472;-2.574;2022-07-23T11:52:23;4.45;;;2.72;;
67665;SDS011;54448;51.472;-2.574;2022-07-23T11:54:53;14.88;;;3.88;;
67665;SDS011;54448;51.472;-2.574;2022-07-23T11:57:23;7.88;;;2.85;;
67665;SDS011;54448;51.472;-2.574;2022-07-23T11:59:55;6.83;;;3.00;;
67665;SDS011;54448;51.472;-2.574;2022-07-23T12:02:21;8.75;;;3.78;;
67665;SDS011;54448;51.472;-2.574;2022-07-23T12:04:48;15.63;;;3.20;;
67665;SDS011;54448;51.472;-2.574;2022-07-23T12:07:27;5.28;;;3.10;;
67665;SDS011;54448;51.472;-2.574;2022-07-23T12:12:50;10.27;;;3.50;;
67665;SDS011;54448;51.472;-2.574;2022-07-23T12:15:20;10.48;;;3.60;;
67665;SDS011;54448;51.472;-2.574;2022-07-23T12:17:50;12.77;;;3.42;;
67665;SDS011;54448;51.472;-2.574;2022-07-23T12:20:19;7.63;;;3.78;;
67665;SDS011;54448;51.472;-2.574;2022-07-23T12:22:49;13.10;;;3.55;;
67665;SDS011;54448;51.472;-2.574;2022-07-23T12:25:20;6.15;;;3.33;;
67665;SDS011;54448;51.472;-2.574;2022-07-23T12:27:58;8.95;;;3.72;;
67665;SDS011;54448;51.472;-2.574;2022-07-23T12:30:28;6.55;;;3.20;;
67665;SDS011;54448;51.472;-2.574;2022-07-23T12:32:56;9.10;;;3.22;;
67665;SDS011;54448;51.472;-2.574;2022-07-23T12:35:22;5.50;;;3.00;;
67665;SDS011;54448;51.472;-2.574;2022-07-23T12:37:50;9.52;;;3.72;;
67665;SDS011;54448;51.472;-2.574;2022-07-23T12:48:38;6.82;;;2.85;;
67665;SDS011;54448;51.472;-2.574;2022-07-23T12:51:18;5.45;;;2.85;;
67665;SDS011;54448;51.472;-2.574;2022-07-23T12:56:28;5.32;;;2.30;;
67665;SDS011;54448;51.472;-2.574;2022-07-23T12:58:56;7.43;;;2.33;;
67665;SDS011;54448;51.472;-2.574;2022-07-23T13:01:24;7.15;;;2.97;;
67665;SDS011;54448;51.472;-2.574;2022-07-23T13:06:30;7.32;;;2.88;;
67665;SDS011;54448;51.472;-2.574;2022-07-23T13:08:57;8.48;;;3.60;;
67665;SDS011;54448;51.472;-2.574;2022-07-23T13:11:26;7.07;;;3.00;;
67665;SDS011;54448;51.472;-2.574;2022-07-23T13:13:52;8.80;;;3.67;;
67665;SDS011;54448;51.472;-2.574;2022-07-23T13:16:17;9.77;;;3.70;;
67665;SDS011;54448;51.472;-2.574;2022-07-23T13:18:43;8.35;;;3.70;;
67665;SDS011;54448;51.472;-2.574;2022-07-23T13:21:09;10.40;;;3.65;;
67665;SDS011;54448;51.472;-2.574;2022-07-23T13:23:35;5.43;;;3.20;;
67665;SDS011;54448;51.472;-2.574;2022-07-23T13:26:01;8.57;;;3.40;;
67665;SDS011;54448;51.472;-2.574;2022-07-23T13:28:26;5.57;;;3.75;;
67665;SDS011;54448;51.472;-2.574;2022-07-23T13:30:52;6.13;;;3.35;;
67665;SDS011;54448;51.472;-2.574;2022-07-23T13:33:18;9.95;;;3.30;;
67665;SDS011;54448;51.472;-2.574;2022-07-23T13:35:44;7.88;;;3.50;;
67665;SDS011;54448;51.472;-2.574;2022-07-23T13:38:10;12.35;;;3.75;;
67665;SDS011;54448;51.472;-2.574;2022-07-23T13:40:37;10.18;;;4.05;;
67665;SDS011;54448;51.472;-2.574;2022-07-23T13:43:05;8.55;;;3.75;;
67665;SDS011;54448;51.472;-2.574;2022-07-23T13:45:31;11.98;;;3.95;;
67665;SDS011;54448;51.472;-2.574;2022-07-23T13:47:58;10.98;;;3.53;;
67665;SDS011;54448;51.472;-2.574;2022-07-23T13:50:23;6.38;;;3.47;;
67665;SDS011;54448;51.472;-2.574;2022-07-23T13:52:49;8.90;;;3.50;;
67665;SDS011;54448;51.472;-2.574;2022-07-23T13:55:15;6.85;;;3.80;;
67665;SDS011;54448;51.472;-2.574;2022-07-23T13:57:40;13.18;;;4.60;;
67665;SDS011;54448;51.472;-2.574;2022-07-23T14:00:06;13.23;;;3.72;;
67665;SDS011;54448;51.472;-2.574;2022-07-23T14:02:35;7.63;;;3.42;;
67665;SDS011;54448;51.472;-2.574;2022-07-23T14:05:02;6.20;;;3.50;;
67665;SDS011;54448;51.472;-2.574;2022-07-23T14:07:28;8.02;;;4.05;;
67665;SDS011;54448;51.472;-2.574;2022-07-23T14:09:55;12.98;;;3.80;;
67665;SDS011;54448;51.472;-2.574;2022-07-23T14:12:20;10.15;;;3.97;;
67665;SDS011;54448;51.472;-2.574;2022-07-23T14:14:46;11.95;;;3.90;;
67665;SDS011;54448;51.472;-2.574;2022-07-23T14:17:11;8.45;;;3.95;;
67665;SDS011;54448;51.472;-2.574;2022-07-23T14:19:36;8.63;;;3.38;;
67665;SDS011;54448;51.472;-2.574;2022-07-23T14:22:02;9.73;;;3.53;;
67665;SDS011;54448;51.472;-2.574;2022-07-23T14:24:27;15.30;;;3.53;;
67665;SDS011;54448;51.472;-2.574;2022-07-23T14:26:53;8.52;;;3.03;;
67665;SDS011;54448;51.472;-2.574;2022-07-23T14:29:18;7.35;;;3.35;;
67665;SDS011;54448;51.472;-2.574;2022-07-23T14:31:44;8.45;;;4.13;;
67665;SDS011;54448;51.472;-2.574;2022-07-23T14:34:09;11.13;;;3.83;;
67665;SDS011;54448;51.472;-2.574;2022-07-23T14:36:36;9.10;;;3.88;;
67665;SDS011;54448;51.472;-2.574;2022-07-23T14:39:02;8.18;;;4.00;;
67665;SDS011;54448;51.472;-2.574;2022-07-23T14:41:28;11.23;;;4.78;;
67665;SDS011;54448;51.472;-2.574;2022-07-23T14:43:53;10.80;;;5.40;;
67665;SDS011;54448;51.472;-2.574;2022-07-23T14:46:19;12.82;;;4.60;;
67665;SDS011;54448;51.472;-2.574;2022-07-23T14:48:44;11.85;;;4.70;;
67665;SDS011;54448;51.472;-2.574;2022-07-23T14:51:09;10.63;;;4.28;;
67665;SDS011;54448;51.472;-2.574;2022-07-23T14:53:35;8.55;;;4.38;;
67665;SDS011;54448;51.472;-2.574;2022-07-23T14:56:00;14.35;;;4.60;;
67665;SDS011;54448;51.472;-2.574;2022-07-23T14:58:26;8.93;;;4.75;;
67665;SDS011;54448;51.472;-2.574;2022-07-23T15:00:54;11.88;;;4.38;;
67665;SDS011;54448;51.472;-2.574;2022-07-23T15:03:19;7.75;;;4.13;;
67665;SDS011;54448;51.472;-2.574;2022-07-23T15:05:45;8.60;;;4.22;;
67665;SDS011;54448;51.472;-2.574;2022-07-23T15:08:10;12.90;;;4.95;;
67665;SDS011;54448;51.472;-2.574;2022-07-23T15:10:36;11.02;;;4.50;;
67665;SDS011;54448;51.472;-2.574;2022-07-23T15:13:01;14.50;;;5.78;;
67665;SDS011;54448;51.472;-2.574;2022-07-23T15:15:27;14.27;;;5.05;;
67665;SDS011;54448;51.472;-2.574;2022-07-23T15:17:53;9.52;;;5.13;;
67665;SDS011;54448;51.472;-2.574;2022-07-23T15:20:18;12.38;;;5.13;;
67665;SDS011;54448;51.472;-2.574;2022-07-23T15:22:44;13.55;;;4.38;;
67665;SDS011;54448;51.472;-2.574;2022-07-23T15:25:10;12.50;;;4.88;;
67665;SDS011;54448;51.472;-2.574;2022-07-23T15:27:39;9.63;;;4.00;;